FACT/CPT METAR and TAF weather

Enter ICAO airport designator
Station Type Date Time Source
FACT METAR 2020/01/18 21:00 UTC NOAA

FACT 182100Z 15027G38KT 9999 FEW030 17/12 Q1013 NOSIG


Station Type Date Time Source
FACT Decoded METAR 2020/01/18 21:00 UTC NOAA

Cape Town, Cape Town International Airport, South Africa (FACT) 33-59S 018-36E 0M
Jan 18, 2020 - 04:00 PM EST / 2020.01.18 2100 UTC
Wind: from the SSE (150 degrees) at 31 MPH (27 KT) gusting to 44 MPH (38 KT):0
Visibility: greater than 7 mile(s):0
Sky conditions: mostly clear
Temperature: 62 F (17 C)
Dew Point: 53 F (12 C)
Relative Humidity: 72%
Pressure (altimeter): 29.91 in. Hg (1013 hPa)
ob: FACT 182100Z 15027G38KT 9999 FEW030 17/12 Q1013 NOSIG
cycle: 21

Station Type Date Time Source
FACT TAF 2020/01/18 18:09 UTC NOAA

TAF TAF FACT 181600Z 1818/1924 17020KT 9999 FEW030 TX24/1912Z TN18/1904Z PROB30
TEMPO 1822/1904 5000 TSRA FEW050CB
BECMG 1911/1913 15030KT
FM191300 15030KT 9999 BKN025

Example: see airport list